Terminal Aerodrome Forecast
Issued by NWS

Home | Current Version | Previous Version | Graphics & Text | Print | Product List | Glossary On
Versions: 1 2 3 4 5 6 7 8 9 10 11 12 13 14
000
FTUS43 KBIS 011130
TAFMOT
TAF
KMOT 011130Z 0112/0212 32004KT P6SM SKC
     FM012100 25004KT P6SM SKC
     FM020600 22009KT P6SM BKN080=

USA.gov is the U.S. government's official web portal to all federal, state and local government web resources and services.